createdAt,value
2018-12-08T00:00:33.922Z,18.36
2018-12-08T00:01:33.903Z,18.32
2018-12-08T00:02:33.892Z,18.31
2018-12-08T00:03:33.876Z,18.35
2018-12-08T00:04:33.876Z,18.35
2018-12-08T00:05:33.855Z,18.36
2018-12-08T00:06:33.841Z,18.29
2018-12-08T00:07:33.840Z,18.31
2018-12-08T00:08:33.829Z,18.27
2018-12-08T00:09:33.814Z,18.23
2018-12-08T00:10:33.800Z,18.16
2018-12-08T00:11:33.792Z,18.24
2018-12-08T00:12:33.789Z,18.29
2018-12-08T00:13:33.763Z,18.23
2018-12-08T00:14:33.764Z,18.21
2018-12-08T00:15:33.749Z,18.35
2018-12-08T00:16:33.740Z,18.31
2018-12-08T00:17:33.808Z,18.34
2018-12-08T00:18:33.727Z,18.41
2018-12-08T00:19:33.705Z,18.45
2018-12-08T00:20:33.696Z,18.51
2018-12-08T00:21:33.688Z,18.54
2018-12-08T00:22:33.679Z,18.56
2018-12-08T00:23:33.675Z,18.59
2018-12-08T00:24:34.624Z,18.61
2018-12-08T00:25:33.637Z,18.68
2018-12-08T00:26:33.632Z,18.69
2018-12-08T00:27:33.627Z,18.71
2018-12-08T00:28:33.615Z,18.74
2018-12-08T00:29:33.599Z,18.90
2018-12-08T00:30:33.588Z,18.94
2018-12-08T00:31:34.120Z,18.93
2018-12-08T00:32:33.565Z,18.94
2018-12-08T00:33:33.557Z,18.91
2018-12-08T00:34:33.541Z,18.93
2018-12-08T00:35:33.563Z,19.07
2018-12-08T00:36:33.517Z,19.06
2018-12-08T00:37:33.513Z,18.99
2018-12-08T00:38:33.498Z,18.96
2018-12-08T00:39:33.489Z,18.94
2018-12-08T00:40:33.488Z,18.96
2018-12-08T00:41:33.467Z,18.94
2018-12-08T00:42:33.459Z,18.90
2018-12-08T00:43:33.460Z,18.24
2018-12-08T00:44:33.441Z,17.40
2018-12-08T00:45:33.436Z,16.97
2018-12-08T00:46:33.410Z,16.30
2018-12-08T00:47:33.406Z,15.56
2018-12-08T00:48:33.388Z,14.93
2018-12-08T00:49:33.419Z,14.70
2018-12-08T00:50:33.374Z,14.67
2018-12-08T00:51:33.372Z,14.69
2018-12-08T00:52:33.437Z,14.79
2018-12-08T00:53:33.342Z,14.90
2018-12-08T00:54:33.326Z,14.98
2018-12-08T00:55:33.320Z,15.15
2018-12-08T00:56:33.318Z,15.44
2018-12-08T00:57:33.294Z,15.84
2018-12-08T00:58:33.286Z,16.13
2018-12-08T00:59:33.283Z,16.32
2018-12-08T01:00:33.267Z,16.62
2018-12-08T01:01:33.255Z,16.99
2018-12-08T01:02:33.250Z,17.10
2018-12-08T01:03:33.235Z,17.20
2018-12-08T01:04:33.220Z,17.20
2018-12-08T01:05:33.211Z,17.22
2018-12-08T01:06:33.200Z,17.31
2018-12-08T01:07:33.187Z,17.32
2018-12-08T01:08:33.171Z,17.32
2018-12-08T01:09:33.168Z,17.28
2018-12-08T01:10:33.165Z,17.32
2018-12-08T01:11:33.144Z,17.32
2018-12-08T01:12:33.142Z,17.38
2018-12-08T01:13:33.127Z,17.30
2018-12-08T01:14:33.161Z,17.31
2018-12-08T01:15:33.103Z,17.25
2018-12-08T01:16:33.096Z,17.27
2018-12-08T01:17:33.081Z,17.30
2018-12-08T01:18:33.083Z,17.28
2018-12-08T01:19:33.063Z,17.45
2018-12-08T01:20:33.053Z,17.47
2018-12-08T01:21:33.055Z,17.43
2018-12-08T01:22:33.031Z,17.57
2018-12-08T01:23:33.020Z,17.55
2018-12-08T01:24:32.999Z,17.66
2018-12-08T01:25:32.998Z,17.54
2018-12-08T01:26:32.983Z,17.63
2018-12-08T01:27:32.969Z,17.74
2018-12-08T01:28:32.965Z,17.79
2018-12-08T01:29:32.992Z,17.81
2018-12-08T01:30:32.957Z,17.87
2018-12-08T01:31:32.953Z,17.87
2018-12-08T01:32:32.929Z,17.81
2018-12-08T01:33:32.910Z,17.87
2018-12-08T01:34:32.909Z,17.95
2018-12-08T01:35:32.892Z,17.94
2018-12-08T01:36:32.887Z,18.10
2018-12-08T01:37:32.881Z,18.10
2018-12-08T01:38:32.870Z,18.11
2018-12-08T01:39:32.856Z,18.17
2018-12-08T01:40:32.861Z,18.23
2018-12-08T01:41:32.831Z,18.20
2018-12-08T01:42:32.816Z,18.14
2018-12-08T01:43:32.806Z,18.23
2018-12-08T01:44:32.805Z,18.23
2018-12-08T01:45:32.781Z,18.24
2018-12-08T01:46:32.774Z,18.24
2018-12-08T01:47:32.774Z,18.31
2018-12-08T01:48:32.768Z,18.27
2018-12-08T01:49:32.743Z,18.34
2018-12-08T01:50:32.730Z,18.39
2018-12-08T01:51:32.720Z,18.50
2018-12-08T01:52:32.723Z,18.45
2018-12-08T01:53:32.721Z,18.54
2018-12-08T01:54:32.685Z,18.61
2018-12-08T01:55:32.677Z,18.69
2018-12-08T01:56:32.671Z,18.69
2018-12-08T01:57:32.660Z,18.74
2018-12-08T01:58:32.644Z,18.66
2018-12-08T01:59:32.645Z,18.89
2018-12-08T02:00:32.637Z,18.90
2018-12-08T02:01:32.636Z,18.91
2018-12-08T02:02:32.606Z,19.00
2018-12-08T02:03:32.663Z,18.93
2018-12-08T02:04:32.586Z,18.96
2018-12-08T02:05:32.571Z,19.07
2018-12-08T02:06:32.563Z,18.96
2018-12-08T02:07:32.546Z,19.06
2018-12-08T02:08:32.543Z,18.96
2018-12-08T02:09:32.532Z,19.07
2018-12-08T02:10:32.524Z,18.96
2018-12-08T02:11:32.509Z,18.99
2018-12-08T02:12:32.566Z,18.99
2018-12-08T02:13:32.493Z,18.94
2018-12-08T02:14:32.476Z,18.96
2018-12-08T02:15:32.470Z,18.91
2018-12-08T02:16:32.456Z,18.97
2018-12-08T02:17:32.449Z,18.96
2018-12-08T02:18:32.439Z,18.99
2018-12-08T02:19:32.420Z,19.06
2018-12-08T02:20:32.416Z,19.00
2018-12-08T02:21:32.405Z,18.99
2018-12-08T02:22:32.392Z,19.07
2018-12-08T02:23:32.375Z,19.09
2018-12-08T02:24:32.384Z,18.93
2018-12-08T02:25:32.370Z,19.10
2018-12-08T02:26:32.367Z,19.06
2018-12-08T02:27:32.336Z,18.90
2018-12-08T02:28:32.328Z,18.96
2018-12-08T02:29:32.322Z,19.09
2018-12-08T02:30:32.304Z,18.96
2018-12-08T02:31:32.291Z,19.15
2018-12-08T02:32:32.284Z,19.25
2018-12-08T02:33:32.277Z,19.17
2018-12-08T02:34:32.276Z,19.24
2018-12-08T02:35:32.250Z,19.23
2018-12-08T02:36:32.239Z,19.23
2018-12-08T02:37:32.229Z,19.24
2018-12-08T02:38:32.223Z,19.24
2018-12-08T02:39:32.219Z,19.30
2018-12-08T02:40:32.197Z,19.27
2018-12-08T02:41:32.204Z,19.28
2018-12-08T02:42:32.198Z,19.34
2018-12-08T02:43:32.201Z,19.25
2018-12-08T02:44:32.157Z,19.28
2018-12-08T02:45:32.149Z,19.34
2018-12-08T02:46:32.135Z,19.35
2018-12-08T02:47:32.126Z,19.32
2018-12-08T02:48:32.133Z,19.24
2018-12-08T02:49:32.099Z,19.13
2018-12-08T02:50:32.094Z,19.27
2018-12-08T02:51:32.088Z,19.15
2018-12-08T02:52:32.065Z,19.30
2018-12-08T02:53:32.063Z,19.25
2018-12-08T02:54:32.055Z,19.27
2018-12-08T02:55:32.110Z,19.20
2018-12-08T02:56:32.149Z,19.28
2018-12-08T02:57:32.022Z,19.27
2018-12-08T02:58:32.008Z,19.23
2018-12-08T02:59:32.002Z,19.27
2018-12-08T03:00:31.984Z,19.27
2018-12-08T03:01:31.985Z,19.38
2018-12-08T03:02:31.962Z,19.37
2018-12-08T03:03:31.953Z,19.55
2018-12-08T03:04:31.942Z,19.49
2018-12-08T03:05:31.937Z,19.65
2018-12-08T03:06:31.926Z,19.67
2018-12-08T03:07:31.903Z,19.64
2018-12-08T03:08:31.914Z,19.52
2018-12-08T03:09:31.895Z,19.60
2018-12-08T03:10:31.871Z,19.56
2018-12-08T03:11:31.881Z,19.55
2018-12-08T03:12:31.867Z,19.55
2018-12-08T03:13:31.841Z,19.52
2018-12-08T03:14:31.836Z,19.63
2018-12-08T03:15:31.844Z,19.56
2018-12-08T03:16:31.840Z,19.61
2018-12-08T03:17:31.805Z,19.64
2018-12-08T03:18:31.794Z,19.65
2018-12-08T03:19:31.797Z,19.61
2018-12-08T03:20:31.835Z,19.68
2018-12-08T03:21:31.921Z,19.75
2018-12-08T03:22:31.768Z,19.72
2018-12-08T03:23:31.741Z,19.72
2018-12-08T03:24:31.747Z,19.78
2018-12-08T03:25:31.717Z,19.87
2018-12-08T03:26:31.703Z,19.83
2018-12-08T03:27:31.713Z,20.00
2018-12-08T03:28:31.687Z,19.92
2018-12-08T03:29:31.679Z,19.95
2018-12-08T03:30:31.666Z,20.08
2018-12-08T03:31:31.658Z,20.08
2018-12-08T03:32:31.673Z,20.05
2018-12-08T03:33:31.633Z,20.05
2018-12-08T03:34:31.625Z,20.05
2018-12-08T03:35:31.611Z,20.10
2018-12-08T03:36:31.596Z,20.08
2018-12-08T03:37:31.592Z,20.05
2018-12-08T03:38:31.579Z,20.00
2018-12-08T03:39:31.568Z,20.00
2018-12-08T03:40:31.559Z,20.05
2018-12-08T03:41:31.555Z,19.92
2018-12-08T03:42:31.562Z,19.89
2018-12-08T03:43:31.533Z,19.83
2018-12-08T03:44:31.523Z,19.93
2018-12-08T03:45:31.513Z,19.92
2018-12-08T03:46:31.504Z,19.83
2018-12-08T03:47:31.481Z,19.92
2018-12-08T03:48:31.470Z,20.02
2018-12-08T03:49:31.458Z,19.89
2018-12-08T03:50:31.448Z,19.98
2018-12-08T03:51:31.433Z,20.04
2018-12-08T03:52:31.431Z,20.07
2018-12-08T03:53:31.421Z,20.10
2018-12-08T03:54:31.408Z,20.05
2018-12-08T03:55:31.405Z,20.10
2018-12-08T03:56:31.402Z,20.11
2018-12-08T03:57:31.370Z,20.16
2018-12-08T03:58:31.369Z,20.16
2018-12-08T03:59:31.375Z,20.18
2018-12-08T04:00:31.344Z,20.16
2018-12-08T04:01:31.336Z,20.29
2018-12-08T04:02:31.350Z,20.20
2018-12-08T04:03:31.315Z,20.23
2018-12-08T04:04:31.305Z,20.29
2018-12-08T04:05:31.307Z,20.35
2018-12-08T04:06:31.305Z,20.25
2018-12-08T04:07:31.344Z,20.16
2018-12-08T04:08:31.296Z,20.25
2018-12-08T04:09:31.254Z,20.23
2018-12-08T04:10:31.284Z,20.10
2018-12-08T04:11:31.238Z,20.12
2018-12-08T04:12:31.233Z,20.15
2018-12-08T04:13:31.235Z,20.15
2018-12-08T04:14:31.380Z,20.08
2018-12-08T04:15:31.197Z,20.08
2018-12-08T04:16:31.182Z,20.12
2018-12-08T04:17:31.219Z,20.11
2018-12-08T04:18:31.247Z,20.15
2018-12-08T04:19:31.149Z,20.16
2018-12-08T04:20:31.142Z,20.16
2018-12-08T04:21:31.126Z,20.15
2018-12-08T04:22:31.155Z,20.23
2018-12-08T04:23:31.102Z,20.30
2018-12-08T04:24:31.114Z,20.26
2018-12-08T04:25:31.100Z,20.34
2018-12-08T04:26:31.065Z,20.29
2018-12-08T04:27:31.063Z,20.29
2018-12-08T04:28:31.049Z,20.27
2018-12-08T04:29:31.035Z,20.37
2018-12-08T04:30:31.021Z,20.37
2018-12-08T04:31:31.016Z,20.35
2018-12-08T04:32:31.001Z,20.38
2018-12-08T04:33:30.996Z,20.25
2018-12-08T04:34:30.982Z,20.34
2018-12-08T04:35:30.975Z,20.25
2018-12-08T04:36:30.965Z,20.26
2018-12-08T04:37:30.955Z,20.19
2018-12-08T04:38:30.942Z,20.25
2018-12-08T04:39:30.924Z,20.19
2018-12-08T04:40:30.935Z,20.18
2018-12-08T04:41:30.909Z,20.16
2018-12-08T04:42:30.902Z,20.18
2018-12-08T04:43:30.886Z,20.10
2018-12-08T04:44:30.880Z,20.16
2018-12-08T04:45:30.866Z,20.12
2018-12-08T04:46:30.856Z,20.16
2018-12-08T04:47:30.983Z,20.23
2018-12-08T04:48:30.826Z,20.18
2018-12-08T04:49:30.834Z,20.25
2018-12-08T04:50:30.816Z,20.16
2018-12-08T04:51:30.799Z,20.29
2018-12-08T04:52:30.794Z,20.30
2018-12-08T04:53:30.779Z,20.25
2018-12-08T04:54:30.768Z,20.27
2018-12-08T04:55:30.768Z,20.32
2018-12-08T04:56:30.754Z,20.35
2018-12-08T04:57:30.741Z,20.44
2018-12-08T04:58:30.746Z,20.38
2018-12-08T04:59:30.726Z,20.34
2018-12-08T05:00:30.704Z,20.38
2018-12-08T05:01:30.691Z,20.23
2018-12-08T05:02:30.686Z,20.32
2018-12-08T05:03:30.681Z,20.27
2018-12-08T05:04:30.666Z,20.29
2018-12-08T05:05:31.217Z,20.26
2018-12-08T05:06:30.643Z,20.26
2018-12-08T05:07:30.631Z,20.30
2018-12-08T05:08:30.623Z,20.35
2018-12-08T05:09:30.615Z,20.34
2018-12-08T05:10:30.598Z,20.44
2018-12-08T05:11:30.591Z,20.58
2018-12-08T05:12:30.571Z,20.64
2018-12-08T05:13:30.572Z,20.76
2018-12-08T05:14:30.588Z,20.93
2018-12-08T05:15:30.552Z,20.97
2018-12-08T05:16:30.542Z,21.08
2018-12-08T05:17:30.517Z,21.19
2018-12-08T05:18:30.522Z,21.30
2018-12-08T05:19:30.510Z,21.31
2018-12-08T05:20:30.503Z,21.43
2018-12-08T05:21:30.490Z,21.46
2018-12-08T05:22:30.513Z,21.59
2018-12-08T05:23:30.482Z,21.64
2018-12-08T05:24:30.464Z,21.67
2018-12-08T05:25:30.446Z,21.71
2018-12-08T05:26:30.445Z,21.71
2018-12-08T05:27:30.536Z,21.80
2018-12-08T05:28:30.413Z,21.96
2018-12-08T05:29:30.465Z,21.90
2018-12-08T05:30:30.397Z,22.02
2018-12-08T05:31:30.385Z,21.99
2018-12-08T05:32:30.370Z,22.07
2018-12-08T05:33:30.350Z,22.08
2018-12-08T05:34:30.352Z,22.08
2018-12-08T05:35:30.334Z,22.15
2018-12-08T05:36:30.328Z,22.26
2018-12-08T05:37:30.324Z,22.09
2018-12-08T05:38:30.314Z,22.24
2018-12-08T05:39:30.287Z,22.20
2018-12-08T05:40:30.279Z,22.23
2018-12-08T05:41:30.270Z,22.30
2018-12-08T05:42:30.263Z,22.31
2018-12-08T05:43:30.270Z,22.38
2018-12-08T05:44:30.239Z,22.46
2018-12-08T05:45:30.227Z,22.54
2018-12-08T05:46:30.214Z,22.46
2018-12-08T05:47:30.210Z,22.51
2018-12-08T05:48:30.213Z,22.54
2018-12-08T05:49:30.188Z,22.51
2018-12-08T05:50:30.198Z,22.57
2018-12-08T05:51:30.161Z,22.59
2018-12-08T05:52:30.160Z,22.63
2018-12-08T05:53:30.139Z,22.66
2018-12-08T05:54:30.145Z,22.66
2018-12-08T05:55:30.128Z,22.73
2018-12-08T05:56:30.116Z,22.71
2018-12-08T05:57:30.097Z,22.75
2018-12-08T05:58:30.097Z,22.84
2018-12-08T05:59:30.077Z,22.76
2018-12-08T06:00:30.075Z,22.71
2018-12-08T06:01:30.064Z,22.76
2018-12-08T06:02:30.045Z,22.78
2018-12-08T06:03:30.037Z,22.78
2018-12-08T06:04:30.024Z,22.76
2018-12-08T06:05:30.021Z,22.70
2018-12-08T06:06:30.008Z,22.70
2018-12-08T06:07:30.006Z,22.73
2018-12-08T06:08:29.977Z,22.70
2018-12-08T06:09:29.974Z,22.63
2018-12-08T06:10:29.960Z,22.54
2018-12-08T06:11:29.959Z,22.52
2018-12-08T06:12:29.947Z,22.57
2018-12-08T06:13:29.928Z,22.45
2018-12-08T06:14:29.920Z,22.36
2018-12-08T06:15:29.932Z,22.30
2018-12-08T06:16:29.899Z,22.26
2018-12-08T06:17:29.891Z,22.12
2018-12-08T06:18:29.880Z,22.04
2018-12-08T06:19:29.867Z,22.00
2018-12-08T06:20:29.861Z,22.00
2018-12-08T06:21:29.844Z,21.90
2018-12-08T06:22:29.834Z,21.85
2018-12-08T06:23:29.831Z,21.77
2018-12-08T06:24:29.817Z,21.71
2018-12-08T06:25:29.809Z,21.66
2018-12-08T06:26:29.789Z,21.52
2018-12-08T06:27:29.779Z,21.61
2018-12-08T06:28:29.770Z,21.45
2018-12-08T06:29:29.763Z,21.48
2018-12-08T06:30:29.756Z,21.38
2018-12-08T06:31:29.743Z,21.33
2018-12-08T06:32:29.729Z,21.22
2018-12-08T06:33:29.717Z,21.19
2018-12-08T06:34:29.704Z,21.22
2018-12-08T06:35:29.730Z,21.23
2018-12-08T06:36:29.693Z,21.16
2018-12-08T06:37:29.699Z,21.31
2018-12-08T06:38:29.668Z,21.30
2018-12-08T06:39:29.654Z,21.30
2018-12-08T06:40:29.645Z,21.38
2018-12-08T06:41:29.647Z,21.36
2018-12-08T06:42:29.634Z,21.43
2018-12-08T06:43:29.627Z,21.46
2018-12-08T06:44:29.603Z,21.58
2018-12-08T06:45:29.586Z,21.62
2018-12-08T06:46:29.576Z,21.68
2018-12-08T06:47:29.565Z,21.67
2018-12-08T06:48:29.575Z,21.77
2018-12-08T06:49:29.552Z,21.77
2018-12-08T06:50:29.535Z,21.93
2018-12-08T06:51:29.528Z,21.94
2018-12-08T06:52:29.520Z,21.93
2018-12-08T06:53:29.503Z,22.07
2018-12-08T06:54:29.511Z,22.04
2018-12-08T06:55:29.578Z,22.15
2018-12-08T06:56:29.473Z,22.14
2018-12-08T06:57:29.460Z,22.23
2018-12-08T06:58:29.460Z,22.23
2018-12-08T06:59:29.451Z,22.26
2018-12-08T07:00:29.447Z,22.16
2018-12-08T07:01:29.427Z,22.30
2018-12-08T07:02:29.411Z,22.36
2018-12-08T07:03:29.400Z,22.33
2018-12-08T07:04:29.395Z,22.42
2018-12-08T07:05:29.379Z,22.41
2018-12-08T07:06:29.370Z,22.45
2018-12-08T07:07:29.352Z,22.41
2018-12-08T07:08:29.346Z,22.52
2018-12-08T07:09:29.338Z,22.54
2018-12-08T07:10:29.324Z,22.51
2018-12-08T07:11:29.311Z,22.52
2018-12-08T07:12:29.305Z,22.52
2018-12-08T07:13:29.296Z,22.54
2018-12-08T07:14:29.282Z,22.49
2018-12-08T07:15:29.270Z,22.54
2018-12-08T07:16:29.262Z,22.49
2018-12-08T07:17:29.253Z,22.51
2018-12-08T07:18:29.242Z,22.54
2018-12-08T07:19:29.227Z,22.54
2018-12-08T07:20:29.216Z,22.48
2018-12-08T07:21:29.215Z,22.41
2018-12-08T07:22:29.196Z,22.41
2018-12-08T07:23:29.187Z,22.51
2018-12-08T07:24:29.177Z,22.51
2018-12-08T07:25:29.165Z,22.52
2018-12-08T07:26:29.148Z,22.49
2018-12-08T07:27:29.157Z,22.55
2018-12-08T07:28:29.136Z,22.55
2018-12-08T07:29:29.123Z,22.61
2018-12-08T07:30:29.125Z,22.64
2018-12-08T07:31:29.103Z,22.61
2018-12-08T07:32:29.092Z,22.59
2018-12-08T07:33:29.086Z,22.59
2018-12-08T07:34:29.073Z,22.59
2018-12-08T07:35:29.068Z,22.57
2018-12-08T07:36:29.049Z,22.57
2018-12-08T07:37:29.039Z,22.42
2018-12-08T07:38:29.044Z,22.46
2018-12-08T07:39:29.018Z,22.52
2018-12-08T07:40:29.011Z,22.51
2018-12-08T07:41:28.992Z,22.55
2018-12-08T07:42:28.990Z,22.52
2018-12-08T07:43:28.980Z,22.49
2018-12-08T07:44:28.971Z,22.55
2018-12-08T07:45:28.956Z,22.54
2018-12-08T07:46:28.947Z,22.48
2018-12-08T07:47:28.941Z,22.44
2018-12-08T07:48:28.925Z,22.45
2018-12-08T07:49:28.908Z,22.44
2018-12-08T07:50:28.905Z,22.41
2018-12-08T07:51:28.896Z,22.41
2018-12-08T07:52:28.885Z,22.36
2018-12-08T07:53:28.868Z,22.39
2018-12-08T07:54:28.854Z,22.41
2018-12-08T07:55:28.852Z,22.39
2018-12-08T07:56:28.842Z,22.38
2018-12-08T07:57:28.857Z,22.41
2018-12-08T07:58:28.810Z,22.33
2018-12-08T07:59:28.824Z,22.33
2018-12-08T08:00:28.806Z,22.34
2018-12-08T08:01:28.783Z,22.31
2018-12-08T08:02:28.784Z,22.39
2018-12-08T08:03:28.771Z,22.29
2018-12-08T08:04:28.756Z,22.31
2018-12-08T08:05:28.746Z,22.30
2018-12-08T08:06:28.731Z,22.36
2018-12-08T08:07:28.712Z,22.38
2018-12-08T08:08:28.718Z,22.33
2018-12-08T08:09:28.701Z,22.38
2018-12-08T08:10:28.694Z,22.34
2018-12-08T08:11:28.685Z,22.51
2018-12-08T08:12:28.666Z,22.55
2018-12-08T08:13:28.671Z,22.63
2018-12-08T08:14:28.656Z,22.64
2018-12-08T08:15:28.638Z,22.75
2018-12-08T08:16:28.634Z,22.82
2018-12-08T08:17:28.618Z,22.84
2018-12-08T08:18:28.603Z,22.88
2018-12-08T08:19:28.591Z,22.76
2018-12-08T08:20:28.589Z,22.75
2018-12-08T08:21:28.575Z,22.66
2018-12-08T08:22:28.574Z,22.76
2018-12-08T08:23:28.560Z,22.73
2018-12-08T08:24:28.543Z,22.63
2018-12-08T08:25:28.532Z,22.66
2018-12-08T08:26:28.517Z,22.73
2018-12-08T08:27:28.529Z,22.73
2018-12-08T08:28:28.506Z,22.69
2018-12-08T08:29:28.499Z,22.66
2018-12-08T08:30:28.485Z,22.78
2018-12-08T08:31:28.474Z,22.88
2018-12-08T08:32:28.470Z,22.76
2018-12-08T08:33:28.444Z,22.89
2018-12-08T08:34:28.432Z,22.89
2018-12-08T08:35:28.430Z,22.89
2018-12-08T08:36:28.415Z,22.88
2018-12-08T08:37:28.408Z,22.89
2018-12-08T08:38:28.409Z,22.84
2018-12-08T08:39:28.394Z,22.86
2018-12-08T08:40:28.371Z,22.79
2018-12-08T08:41:28.353Z,22.86
2018-12-08T08:42:28.346Z,22.84
2018-12-08T08:43:28.343Z,22.78
2018-12-08T08:44:28.352Z,22.85
2018-12-08T08:45:28.321Z,22.75
2018-12-08T08:46:28.306Z,22.85
2018-12-08T08:47:28.297Z,22.78
2018-12-08T08:48:28.289Z,22.78
2018-12-08T08:49:28.280Z,22.82
2018-12-08T08:50:28.276Z,22.85
2018-12-08T08:51:28.256Z,22.84
2018-12-08T08:52:28.261Z,22.75
2018-12-08T08:53:28.231Z,22.88
2018-12-08T08:54:28.221Z,22.88
2018-12-08T08:55:28.206Z,22.88
2018-12-08T08:56:28.199Z,22.86
2018-12-08T08:57:28.189Z,22.86
2018-12-08T08:58:28.179Z,22.86
2018-12-08T08:59:28.171Z,22.89
2018-12-08T09:00:28.161Z,22.94
2018-12-08T09:01:28.158Z,23.01
2018-12-08T09:02:28.137Z,23.03
2018-12-08T09:03:28.124Z,23.03
2018-12-08T09:04:28.120Z,22.96
2018-12-08T09:05:28.102Z,22.96
2018-12-08T09:06:28.103Z,22.86
2018-12-08T09:07:28.088Z,22.85
2018-12-08T09:08:28.074Z,22.85
2018-12-08T09:09:28.089Z,22.79
2018-12-08T09:10:28.059Z,22.97
2018-12-08T09:11:28.043Z,22.96
2018-12-08T09:12:28.042Z,23.00
2018-12-08T09:13:28.035Z,23.07
2018-12-08T09:14:28.014Z,23.06
2018-12-08T09:15:28.110Z,23.07
2018-12-08T09:16:27.996Z,23.00
2018-12-08T09:17:27.979Z,22.94
2018-12-08T09:18:27.978Z,23.00
2018-12-08T09:19:27.953Z,22.96
2018-12-08T09:20:27.977Z,22.88
2018-12-08T09:21:27.959Z,23.00
2018-12-08T09:22:27.924Z,22.97
2018-12-08T09:23:27.911Z,22.92
2018-12-08T09:24:27.938Z,22.96
2018-12-08T09:25:27.897Z,22.97
2018-12-08T09:26:27.881Z,23.00
2018-12-08T09:27:27.870Z,23.09
2018-12-08T09:28:27.890Z,23.12
2018-12-08T09:29:27.850Z,23.18
2018-12-08T09:30:27.835Z,23.19
2018-12-08T09:31:27.834Z,23.16
2018-12-08T09:32:27.830Z,23.25
2018-12-08T09:33:27.807Z,23.09
2018-12-08T09:34:27.802Z,23.21
2018-12-08T09:35:27.801Z,23.18
2018-12-08T09:36:27.784Z,23.15
2018-12-08T09:37:27.877Z,23.18
2018-12-08T09:38:27.761Z,23.15
2018-12-08T09:39:27.752Z,23.21
2018-12-08T09:40:27.737Z,23.18
2018-12-08T09:41:27.720Z,23.15
2018-12-08T09:42:27.706Z,23.32
2018-12-08T09:43:27.699Z,23.29
2018-12-08T09:44:27.690Z,23.22
2018-12-08T09:45:27.681Z,23.22
2018-12-08T09:46:27.662Z,23.16
2018-12-08T09:47:27.653Z,23.18
2018-12-08T09:48:27.643Z,23.16
2018-12-08T09:49:27.636Z,23.16
2018-12-08T09:50:27.639Z,23.19
2018-12-08T09:51:27.622Z,23.10
2018-12-08T09:52:27.643Z,23.10
2018-12-08T09:53:27.593Z,23.10
2018-12-08T09:54:27.577Z,23.06
2018-12-08T09:55:27.575Z,23.14
2018-12-08T09:56:27.559Z,23.25
2018-12-08T09:57:27.560Z,23.21
2018-12-08T09:58:27.545Z,23.32
2018-12-08T09:59:27.535Z,23.34
2018-12-08T10:00:27.584Z,23.45
2018-12-08T10:01:27.513Z,23.38
2018-12-08T10:02:27.493Z,23.38
2018-12-08T10:03:27.480Z,23.50
2018-12-08T10:04:27.473Z,23.44
2018-12-08T10:05:27.461Z,23.34
2018-12-08T10:06:27.458Z,23.41
2018-12-08T10:07:27.461Z,23.47
2018-12-08T10:08:27.426Z,23.32
2018-12-08T10:09:27.433Z,23.35
2018-12-08T10:10:27.406Z,23.29
2018-12-08T10:11:27.397Z,23.38
2018-12-08T10:12:27.395Z,23.40
2018-12-08T10:13:27.401Z,23.41
2018-12-08T10:14:27.365Z,23.44
2018-12-08T10:15:27.371Z,23.34
2018-12-08T10:16:27.351Z,23.41
2018-12-08T10:17:27.339Z,23.41
2018-12-08T10:18:27.360Z,23.42
2018-12-08T10:19:27.321Z,23.34
2018-12-08T10:20:27.324Z,23.40
2018-12-08T10:21:27.292Z,23.40
2018-12-08T10:22:27.998Z,23.29
2018-12-08T10:23:27.269Z,23.29
2018-12-08T10:24:27.273Z,23.34
2018-12-08T10:25:27.259Z,23.35
2018-12-08T10:26:27.241Z,23.38
2018-12-08T10:27:27.245Z,23.35
2018-12-08T10:28:27.228Z,23.35
2018-12-08T10:29:27.206Z,23.35
2018-12-08T10:30:27.212Z,23.40
2018-12-08T10:31:27.208Z,23.34
2018-12-08T10:32:27.199Z,23.45
2018-12-08T10:33:28.265Z,23.37
2018-12-08T10:34:27.177Z,23.42
2018-12-08T10:35:27.147Z,23.41
2018-12-08T10:36:27.139Z,23.41
2018-12-08T10:37:27.133Z,23.41
2018-12-08T10:38:27.119Z,23.38
2018-12-08T10:39:27.104Z,23.29
2018-12-08T10:40:27.099Z,23.26
2018-12-08T10:41:27.082Z,23.37
2018-12-08T10:42:27.077Z,23.34
2018-12-08T10:43:27.070Z,23.21
2018-12-08T10:44:27.062Z,23.26
2018-12-08T10:45:27.040Z,23.32
2018-12-08T10:46:27.031Z,23.35
2018-12-08T10:47:27.023Z,23.29
2018-12-08T10:48:27.001Z,23.29
2018-12-08T10:49:27.006Z,23.32
2018-12-08T10:50:26.994Z,23.24
2018-12-08T10:51:26.979Z,23.12
2018-12-08T10:52:26.966Z,23.19
2018-12-08T10:53:26.961Z,23.25
2018-12-08T10:54:26.939Z,23.18
2018-12-08T10:55:26.969Z,23.16
2018-12-08T10:56:26.925Z,23.19
2018-12-08T10:57:26.908Z,23.15
2018-12-08T10:58:26.896Z,23.09
2018-12-08T10:59:26.902Z,23.10
2018-12-08T11:00:26.882Z,23.12
2018-12-08T11:01:26.891Z,23.12
2018-12-08T11:02:26.856Z,23.09
2018-12-08T11:03:26.872Z,23.07
2018-12-08T11:04:26.838Z,23.04
2018-12-08T11:05:26.844Z,23.09
2018-12-08T11:06:26.817Z,23.10
2018-12-08T11:07:26.827Z,23.09
2018-12-08T11:08:26.822Z,23.21
2018-12-08T11:09:26.783Z,23.15
2018-12-08T11:10:26.770Z,23.12
2018-12-08T11:11:26.793Z,23.07
2018-12-08T11:12:27.328Z,23.07
2018-12-08T11:13:26.763Z,23.16
2018-12-08T11:14:26.734Z,23.12
2018-12-08T11:15:26.721Z,23.15
2018-12-08T11:16:26.720Z,23.18
2018-12-08T11:17:26.700Z,23.15
2018-12-08T11:18:26.738Z,23.10
2018-12-08T11:19:26.678Z,23.12
2018-12-08T11:20:26.666Z,23.18
2018-12-08T11:21:26.657Z,23.09
2018-12-08T11:22:26.673Z,23.15
2018-12-08T11:23:26.676Z,23.19
2018-12-08T11:24:26.697Z,23.32
2018-12-08T11:25:26.606Z,23.18
2018-12-08T11:26:26.601Z,23.19
2018-12-08T11:27:26.590Z,23.09
2018-12-08T11:28:26.580Z,23.28
2018-12-08T11:29:26.573Z,23.25
2018-12-08T11:30:26.571Z,23.19
2018-12-08T11:31:26.583Z,23.19
2018-12-08T11:32:26.566Z,23.25
2018-12-08T11:33:26.530Z,23.24
2018-12-08T11:34:26.527Z,23.24
2018-12-08T11:35:26.503Z,23.32
2018-12-08T11:36:26.493Z,23.22
2018-12-08T11:37:26.495Z,23.19
2018-12-08T11:38:26.541Z,23.32
2018-12-08T11:39:26.456Z,23.32
2018-12-08T11:40:26.472Z,23.15
2018-12-08T11:41:26.446Z,23.24
2018-12-08T11:42:26.444Z,23.16
2018-12-08T11:43:26.421Z,23.15
2018-12-08T11:44:26.410Z,23.10
2018-12-08T11:45:26.394Z,23.12
2018-12-08T11:46:26.417Z,23.06
2018-12-08T11:47:26.380Z,23.10
2018-12-08T11:48:26.380Z,23.12
2018-12-08T11:49:26.357Z,23.14
2018-12-08T11:50:26.345Z,23.09
2018-12-08T11:51:26.353Z,23.04
2018-12-08T11:52:26.322Z,23.06
2018-12-08T11:53:26.341Z,23.04
2018-12-08T11:54:26.312Z,23.06
2018-12-08T11:55:30.221Z,23.06
2018-12-08T11:56:26.292Z,23.09
2018-12-08T11:57:26.276Z,23.10
2018-12-08T11:58:26.279Z,23.07
2018-12-08T11:59:26.275Z,23.09
2018-12-08T12:00:26.255Z,23.09
2018-12-08T12:01:26.227Z,23.04
2018-12-08T12:02:26.236Z,23.09
2018-12-08T12:03:26.212Z,23.00
2018-12-08T12:04:26.191Z,22.96
2018-12-08T12:05:26.855Z,22.97
2018-12-08T12:06:26.205Z,23.15
2018-12-08T12:07:26.179Z,23.16
2018-12-08T12:08:26.163Z,23.14
2018-12-08T12:09:26.149Z,22.99
2018-12-08T12:10:26.135Z,22.97
2018-12-08T12:11:26.137Z,22.86
2018-12-08T12:12:26.116Z,22.82
2018-12-08T12:13:26.102Z,22.71
2018-12-08T12:14:26.091Z,22.73
2018-12-08T12:15:26.078Z,22.73
2018-12-08T12:16:26.066Z,22.64
2018-12-08T12:17:26.053Z,22.61
2018-12-08T12:18:26.055Z,22.60
2018-12-08T12:19:26.038Z,22.51
2018-12-08T12:20:26.018Z,22.60
2018-12-08T12:21:26.023Z,22.61
2018-12-08T12:22:26.000Z,22.61
2018-12-08T12:23:25.999Z,22.59
2018-12-08T12:24:25.987Z,22.63
2018-12-08T12:25:25.971Z,22.64
2018-12-08T12:26:25.959Z,22.63
2018-12-08T12:27:25.971Z,22.61
2018-12-08T12:28:25.940Z,22.59
2018-12-08T12:29:25.927Z,22.64
2018-12-08T12:30:25.913Z,22.63
2018-12-08T12:31:25.918Z,22.66
2018-12-08T12:32:25.905Z,22.73
2018-12-08T12:33:25.897Z,22.66
2018-12-08T12:34:25.877Z,22.63
2018-12-08T12:35:25.870Z,22.66
2018-12-08T12:36:25.854Z,22.66
2018-12-08T12:37:25.834Z,22.61
2018-12-08T12:38:25.838Z,22.67
2018-12-08T12:39:25.822Z,22.60
2018-12-08T12:40:25.816Z,22.57
2018-12-08T12:41:25.805Z,22.60
2018-12-08T12:42:25.785Z,22.61
2018-12-08T12:43:25.781Z,22.63
2018-12-08T12:44:25.773Z,22.64
2018-12-08T12:45:25.758Z,22.63
2018-12-08T12:46:25.753Z,22.61
2018-12-08T12:47:25.733Z,22.49
2018-12-08T12:48:25.735Z,22.48
2018-12-08T12:49:25.717Z,22.51
2018-12-08T12:50:25.705Z,22.44
2018-12-08T12:51:25.708Z,22.34
2018-12-08T12:52:25.688Z,22.38